Holtsville, New York
Current Conditions -  °F | °C
As of 8:56 AM on Thursday 23 Oct 2014 (Local Time) from KISP Reporting Station
Light Rain Light Rain  
Wind Chill: 52°   Ceiling: 1900
Heat Index: 52°   Visibility: 10mi
Dew Point: 48°   Wind: 16mph
Humidity: 86%   Direction: 360°N
Pressure: 29.62"   Gusts: 23mph
Location:  40.81°N, 73.04°W
Report Text: KISP 231256Z 36014G20KT 10SM -RA OVC019 11/09 A2962 RMK AO2 PK WND 36027/1211 SLP031 P0000 T01110089
Loading
Personal Weather Stations






























Interactive Weather Map
Tropical Storm Tracking
New forecast layout! Learn more

10-Day Weather Forecast

Advertisements
Track Severe Weather on mobile